createdAt,value
2022-09-01T00:01:39.229Z,101024.38
2022-09-01T00:06:42.386Z,101026.06
2022-09-01T00:11:50.594Z,101021.03
2022-09-01T00:16:55.652Z,101022.28
2022-09-01T00:21:58.651Z,101023.78
2022-09-01T00:27:01.517Z,101035.03
2022-09-01T00:32:06.165Z,101026.28
2022-09-01T00:37:09.263Z,101028.59
2022-09-01T00:42:12.119Z,101021.47
2022-09-01T00:47:16.583Z,101030.69
2022-09-01T00:52:24.032Z,101035.50
2022-09-01T00:57:27.530Z,101036.31
2022-09-01T01:02:31.782Z,101026.59
2022-09-01T01:07:42.511Z,101030.69
2022-09-01T01:12:51.881Z,101028.97
2022-09-01T01:17:56.249Z,101022.91
2022-09-01T01:23:10.059Z,101019.28
2022-09-01T01:28:19.360Z,101021.63
2022-09-01T01:33:31.073Z,101016.91
2022-09-01T01:38:35.804Z,101027.97
2022-09-01T01:43:40.778Z,101029.47
2022-09-01T01:48:44.029Z,101034.63
2022-09-01T01:53:47.271Z,101039.69
2022-09-01T01:58:56.191Z,101033.19
2022-09-01T02:04:00.460Z,101029.41
2022-09-01T02:09:04.465Z,101029.97
2022-09-01T02:14:10.412Z,101040.41
2022-09-01T02:19:13.524Z,101037.63
2022-09-01T02:24:18.569Z,101036.38
2022-09-01T02:29:26.482Z,101034.44
2022-09-01T02:34:31.917Z,101034.31
2022-09-01T02:39:36.167Z,101028.69
2022-09-01T02:44:41.546Z,101024.38
2022-09-01T02:49:44.946Z,101018.25
2022-09-01T02:54:50.696Z,101013.03
2022-09-01T02:59:58.925Z,101017.09
2022-09-01T03:05:02.842Z,101016.13
2022-09-01T03:10:09.674Z,101013.16
2022-09-01T03:15:14.280Z,101022.13
2022-09-01T03:20:19.294Z,101022.41
2022-09-01T03:25:25.036Z,101015.00
2022-09-01T03:30:31.225Z,101009.88
2022-09-01T03:35:34.714Z,101010.75
2022-09-01T03:40:38.492Z,101006.63
2022-09-01T03:45:44.758Z,101011.06
2022-09-01T03:50:50.094Z,101018.50
2022-09-01T03:55:54.925Z,101009.06
2022-09-01T04:01:02.797Z,101016.09
2022-09-01T04:06:05.981Z,101018.03
2022-09-01T04:11:16.413Z,101020.94
2022-09-01T04:16:41.877Z,101017.41
2022-09-01T04:21:45.153Z,101023.63
2022-09-01T04:26:50.079Z,101024.75
2022-09-01T04:31:55.023Z,101020.97
2022-09-01T04:36:58.876Z,101011.72
2022-09-01T04:42:06.333Z,101020.84
2022-09-01T04:47:17.121Z,101021.94
2022-09-01T04:52:21.423Z,101022.31
2022-09-01T04:57:29.228Z,101026.75
2022-09-01T05:02:33.494Z,101022.00
2022-09-01T05:07:37.968Z,101026.56
2022-09-01T05:12:41.272Z,101018.75
2022-09-01T05:17:45.857Z,101021.63
2022-09-01T05:22:49.239Z,101021.00
2022-09-01T05:27:52.814Z,101017.72
2022-09-01T05:32:59.405Z,101028.25
2022-09-01T05:38:05.117Z,101031.88
2022-09-01T05:43:12.630Z,101028.03
2022-09-01T05:48:17.818Z,101030.94
2022-09-01T05:53:25.312Z,101028.31
2022-09-01T05:59:22.478Z,101028.81
2022-09-01T06:03:57.919Z,101025.59
2022-09-01T06:09:06.944Z,101023.28
2022-09-01T06:14:11.199Z,101024.22
2022-09-01T06:19:15.493Z,101018.13
2022-09-01T06:24:22.262Z,101029.88
2022-09-01T06:29:31.322Z,101013.69
2022-09-01T06:34:36.199Z,101016.38
2022-09-01T06:39:39.957Z,101016.69
2022-09-01T06:44:43.024Z,101026.34
2022-09-01T06:49:47.784Z,101030.16
2022-09-01T06:54:55.916Z,101039.44
2022-09-01T07:00:07.770Z,101042.41
2022-09-01T07:05:59.686Z,101048.44
2022-09-01T07:11:19.585Z,101048.25
2022-09-01T07:21:42.447Z,101048.16
2022-09-01T07:26:49.834Z,101052.34
2022-09-01T07:53:50.958Z,101039.97
2022-09-01T07:58:54.781Z,101035.72
2022-09-01T08:04:02.080Z,101040.13
2022-09-01T08:09:07.105Z,101042.84
2022-09-01T08:14:18.038Z,101038.25
2022-09-01T08:19:21.456Z,101028.69
2022-09-01T08:24:42.872Z,101035.44
2022-09-01T08:29:45.926Z,101045.16
2022-09-01T08:34:49.029Z,101037.50
2022-09-01T08:39:53.758Z,101027.69
2022-09-01T08:45:03.314Z,101031.38
2022-09-01T08:50:07.741Z,101041.38
2022-09-01T08:55:42.881Z,101025.97
2022-09-01T09:00:54.913Z,101022.72
2022-09-01T09:06:11.656Z,101019.50
2022-09-01T09:11:40.780Z,101024.34
2022-09-01T09:16:46.909Z,101019.44
2022-09-01T09:21:56.896Z,101026.50
2022-09-01T09:27:02.097Z,101020.91
2022-09-01T09:32:22.665Z,101025.22
2022-09-01T09:37:28.656Z,101019.22
2022-09-01T09:42:36.404Z,101023.38
2022-09-01T09:47:44.524Z,101003.59
2022-09-01T09:52:48.660Z,101012.00
2022-09-01T09:57:56.086Z,101008.31
2022-09-01T10:03:04.490Z,100991.84
2022-09-01T10:08:12.863Z,101007.63
2022-09-01T10:13:20.325Z,100993.78
2022-09-01T10:18:32.282Z,100988.72
2022-09-01T10:23:37.077Z,100980.97
2022-09-01T10:28:50.710Z,100971.78
2022-09-01T10:33:54.756Z,100969.38
2022-09-01T10:39:00.753Z,100971.41
2022-09-01T10:44:12.169Z,100967.41
2022-09-01T10:49:50.461Z,100969.53
2022-09-01T10:55:02.541Z,100962.22
2022-09-01T11:06:12.972Z,100973.50
2022-09-01T11:11:27.278Z,100954.75
2022-09-01T11:16:51.900Z,100944.31
2022-09-01T11:22:10.377Z,100946.06
2022-09-01T11:27:34.684Z,100935.38
2022-09-01T11:32:42.643Z,100934.38
2022-09-01T11:37:50.157Z,100938.88
2022-09-01T11:42:55.528Z,100932.63
2022-09-01T11:48:03.212Z,100936.06
2022-09-01T11:53:09.937Z,100933.25
2022-09-01T11:58:17.797Z,100933.28
2022-09-01T12:03:27.443Z,100943.38
2022-09-01T12:08:34.734Z,100943.56
2022-09-01T12:13:38.241Z,100936.97
2022-09-01T12:18:48.952Z,100936.41
2022-09-01T12:23:52.449Z,100933.88
2022-09-01T12:28:55.549Z,100925.34
2022-09-01T12:34:02.400Z,100923.44
2022-09-01T12:39:22.499Z,100921.69
2022-09-01T12:44:32.741Z,100917.53
2022-09-01T12:49:50.001Z,100909.72
2022-09-01T12:54:56.259Z,100899.69
2022-09-01T13:00:15.037Z,100917.50
2022-09-01T13:05:43.728Z,100904.63
2022-09-01T13:10:48.779Z,100892.19
2022-09-01T13:15:53.333Z,100893.41
2022-09-01T13:20:59.059Z,100889.41
2022-09-01T13:26:02.177Z,100877.78
2022-09-01T13:41:53.632Z,100867.75
2022-09-01T13:46:59.749Z,100860.22
2022-09-01T13:52:04.941Z,100856.06
2022-09-01T13:57:07.909Z,100852.28
2022-09-01T14:02:11.052Z,100848.94
2022-09-01T14:07:16.125Z,100851.22
2022-09-01T14:12:18.957Z,100844.94
2022-09-01T14:17:21.756Z,100824.84
2022-09-01T14:22:26.041Z,100824.91
2022-09-01T14:27:28.871Z,100839.75
2022-09-01T14:32:31.703Z,100829.06
2022-09-01T14:37:36.040Z,100829.91
2022-09-01T14:42:39.961Z,100836.66
2022-09-01T14:47:44.183Z,100829.47
2022-09-01T14:52:48.945Z,100806.19
2022-09-01T14:57:52.228Z,100800.81
2022-09-01T15:02:56.165Z,100793.94
2022-09-01T15:08:00.386Z,100786.28
2022-09-01T15:13:03.641Z,100793.34
2022-09-01T15:18:06.980Z,100793.13
2022-09-01T15:23:11.888Z,100800.38
2022-09-01T15:28:14.913Z,100790.13
2022-09-01T15:33:18.073Z,100781.84
2022-09-01T15:38:25.060Z,100779.78
2022-09-01T15:43:30.164Z,100772.09
2022-09-01T15:48:32.992Z,100768.34
2022-09-01T15:53:37.207Z,100768.91
2022-09-01T15:59:00.114Z,100765.03
2022-09-01T16:04:04.030Z,100766.28
2022-09-01T16:09:10.347Z,100754.28
2022-09-01T16:14:14.142Z,100759.09
2022-09-01T16:19:29.966Z,100751.81
2022-09-01T16:24:42.522Z,100750.38
2022-09-01T16:29:49.620Z,100744.13
2022-09-01T16:34:53.389Z,100753.22
2022-09-01T16:40:08.043Z,100755.25
2022-09-01T16:45:19.406Z,100749.69
2022-09-01T16:50:35.557Z,100743.66
2022-09-01T16:55:52.561Z,100748.88
2022-09-01T17:01:06.475Z,100748.28
2022-09-01T17:06:17.276Z,100742.28
2022-09-01T17:11:28.325Z,100746.78
2022-09-01T17:16:37.094Z,100741.63
2022-09-01T17:21:45.349Z,100744.69
2022-09-01T17:26:51.068Z,100741.84
2022-09-01T17:32:03.640Z,100750.84
2022-09-01T17:37:20.556Z,100753.41
2022-09-01T17:42:33.691Z,100753.16
2022-09-01T17:47:47.365Z,100759.50
2022-09-01T17:53:00.868Z,100753.50
2022-09-01T17:58:16.864Z,100762.13
2022-09-01T18:03:45.673Z,100758.16
2022-09-01T18:08:53.906Z,100765.66
2022-09-01T18:14:03.108Z,100768.53
2022-09-01T18:19:13.746Z,100767.63
2022-09-01T18:24:21.401Z,100767.09
2022-09-01T18:29:29.620Z,100762.38
2022-09-01T18:34:44.060Z,100773.69
2022-09-01T18:39:55.000Z,100776.31
2022-09-01T18:45:08.226Z,100776.00
2022-09-01T18:50:17.820Z,100779.28
2022-09-01T18:55:28.006Z,100778.16
2022-09-01T19:00:37.079Z,100777.16
2022-09-01T19:05:54.061Z,100778.50
2022-09-01T19:11:02.496Z,100778.38
2022-09-01T19:16:17.834Z,100781.78
2022-09-01T19:21:23.304Z,100781.59
2022-09-01T19:26:27.899Z,100782.97
2022-09-01T19:31:35.315Z,100783.56
2022-09-01T19:36:41.457Z,100790.03
2022-09-01T19:41:49.479Z,100787.28
2022-09-01T19:46:58.900Z,100791.38
2022-09-01T19:52:09.337Z,100789.09
2022-09-01T19:57:17.865Z,100800.78
2022-09-01T20:02:29.943Z,100801.59
2022-09-01T20:07:37.368Z,100810.28
2022-09-01T20:12:50.168Z,100805.47
2022-09-01T20:17:59.410Z,100804.88
2022-09-01T20:23:08.896Z,100800.28
2022-09-01T20:28:21.812Z,100806.56
2022-09-01T20:33:34.783Z,100805.16
2022-09-01T20:39:02.465Z,100813.63
2022-09-01T20:44:11.161Z,100809.84
2022-09-01T20:49:17.041Z,100812.50
2022-09-01T20:54:29.604Z,100809.97
2022-09-01T20:59:41.674Z,100807.91
2022-09-01T21:04:57.324Z,100804.25
2022-09-01T21:10:07.813Z,100809.81
2022-09-01T21:15:23.730Z,100806.06
2022-09-01T21:20:36.393Z,100812.47
2022-09-01T21:25:39.036Z,100811.69
2022-09-01T21:30:41.973Z,100806.47
2022-09-01T21:35:46.157Z,100800.28
2022-09-01T21:40:50.059Z,100802.78
2022-09-01T21:45:53.196Z,100799.75
2022-09-01T21:50:57.476Z,100793.59
2022-09-01T21:56:01.087Z,100804.38
2022-09-01T22:01:04.944Z,100805.84
2022-09-01T22:06:13.228Z,100807.78
2022-09-01T22:11:16.454Z,100807.88
2022-09-01T22:16:21.355Z,100808.63
2022-09-01T22:21:26.242Z,100810.41
2022-09-01T22:26:31.971Z,100818.28
2022-09-01T22:31:37.245Z,100810.91
2022-09-01T22:36:44.518Z,100803.81
2022-09-01T22:41:47.380Z,100803.53
2022-09-01T22:46:50.306Z,100804.84
2022-09-01T22:51:54.445Z,100803.91
2022-09-01T22:56:58.611Z,100813.47
2022-09-01T23:02:02.656Z,100805.53
2022-09-01T23:07:07.906Z,100802.31
2022-09-01T23:12:10.835Z,100792.81
2022-09-01T23:17:16.829Z,100794.53
2022-09-01T23:22:20.997Z,100800.03
2022-09-01T23:27:23.960Z,100791.81
2022-09-01T23:32:27.801Z,100785.41
2022-09-01T23:37:32.047Z,100788.41
2022-09-01T23:42:35.296Z,100788.81
2022-09-01T23:47:38.213Z,100778.44
2022-09-01T23:52:42.425Z,100775.59
2022-09-01T23:57:45.225Z,100772.75
